Time;durP1;ratioP1;P1;durP2;ratioP2;P2;SDS_P1;SDS_P2;PMS_P1;PMS_P2;Temp;Humidity;BMP_temperature;BMP_pressure;BME280_temperature;BME280_humidity;BME280_pressure;Samples;Min_cycle;Max_cycle;Signal;HPM_P1;HPM_P2
2023/12/02 00:01:20;;;;;;;39.63;23.05;;;0.10;99.90;;;;;;5018900;28;20064;-61
2023/12/02 00:03:46;;;;;;;39.13;21.67;;;0.20;99.90;;;;;;5005464;28;20060;-62
2023/12/02 00:06:11;;;;;;;37.97;22.50;;;0.10;99.90;;;;;;5021345;28;20107;-62
2023/12/02 00:08:37;;;;;;;39.88;21.95;;;0.10;99.90;;;;;;5019065;28;20391;-62
2023/12/02 00:11:03;;;;;;;37.85;22.95;;;0.20;99.90;;;;;;5024267;28;20034;-62
2023/12/02 00:13:31;;;;;;;34.63;20.17;;;0.20;99.90;;;;;;5004903;28;20040;-62
2023/12/02 00:15:56;;;;;;;42.40;23.58;;;0.30;99.90;;;;;;5021402;28;20041;-62
2023/12/02 00:18:22;;;;;;;39.47;21.00;;;0.30;99.90;;;;;;5020248;28;20447;-62
2023/12/02 00:20:48;;;;;;;36.95;21.08;;;0.30;99.90;;;;;;5005927;28;20053;-62
2023/12/02 00:23:13;;;;;;;37.35;21.35;;;0.30;99.90;;;;;;5021435;28;20123;-62
2023/12/02 00:25:39;;;;;;;40.90;22.65;;;0.30;99.90;;;;;;4987523;28;20033;-62
2023/12/02 00:28:05;;;;;;;40.05;22.45;;;0.30;99.90;;;;;;5003293;28;20041;-62
2023/12/02 00:30:30;;;;;;;37.70;22.17;;;0.30;99.90;;;;;;5020446;28;20041;-61
2023/12/02 00:32:56;;;;;;;38.25;22.55;;;0.30;99.90;;;;;;5021306;28;20049;-61
2023/12/02 00:35:22;;;;;;;35.35;21.20;;;0.30;99.90;;;;;;5017112;28;20112;-62
2023/12/02 00:37:48;;;;;;;40.58;22.25;;;0.30;99.90;;;;;;5019897;28;20063;-62
2023/12/02 00:40:13;;;;;;;38.63;22.35;;;0.30;99.90;;;;;;5017351;28;20108;-62
2023/12/02 00:42:39;;;;;;;38.85;21.73;;;0.30;99.90;;;;;;5004102;28;20038;-62
2023/12/02 00:45:05;;;;;;;32.00;19.33;;;0.30;99.90;;;;;;5029009;28;20087;-62
2023/12/02 00:47:31;;;;;;;37.72;21.15;;;0.30;99.90;;;;;;5026416;28;20414;-62
2023/12/02 00:49:57;;;;;;;36.88;21.17;;;0.30;99.90;;;;;;5027577;28;20029;-62
2023/12/02 00:52:22;;;;;;;36.58;21.13;;;0.30;99.90;;;;;;5040625;28;20045;-62
2023/12/02 00:54:48;;;;;;;37.50;20.65;;;0.30;99.90;;;;;;5009429;28;20049;-62
2023/12/02 00:57:14;;;;;;;37.97;21.65;;;0.30;99.90;;;;;;5006587;28;20047;-62
2023/12/02 00:59:39;;;;;;;37.85;20.65;;;0.40;99.90;;;;;;5031729;28;20055;-62
2023/12/02 01:02:06;;;;;;;38.95;21.48;;;0.30;99.90;;;;;;5023856;28;20045;-62
2023/12/02 01:04:32;;;;;;;37.83;20.27;;;0.30;99.90;;;;;;5022310;28;20056;-62
2023/12/02 01:06:58;;;;;;;36.63;20.15;;;0.30;99.90;;;;;;5012869;28;20038;-62
2023/12/02 01:09:24;;;;;;;35.90;21.33;;;0.30;99.90;;;;;;5036565;28;20116;-62
2023/12/02 01:11:50;;;;;;;35.58;20.38;;;0.30;99.90;;;;;;5020123;28;20060;-62
2023/12/02 01:14:16;;;;;;;39.42;21.85;;;0.30;99.90;;;;;;5017829;28;20037;-62
2023/12/02 01:16:41;;;;;;;35.75;20.67;;;0.30;99.90;;;;;;5002434;28;20411;-62
2023/12/02 01:19:07;;;;;;;36.28;20.73;;;0.30;99.90;;;;;;5019801;28;20045;-61
2023/12/02 01:21:33;;;;;;;33.75;19.67;;;0.40;99.90;;;;;;5004347;28;20042;-62
2023/12/02 01:23:58;;;;;;;37.95;21.75;;;0.40;99.90;;;;;;5022000;28;20045;-62
2023/12/02 01:30:06;;;;;;;38.65;21.33;;;0.40;99.90;;;;;;5028614;28;20487;-62
2023/12/02 01:32:31;;;;;;;37.13;21.70;;;0.30;99.90;;;;;;5006446;28;20471;-62
2023/12/02 01:34:57;;;;;;;37.85;21.88;;;0.30;99.90;;;;;;5022797;28;20044;-63
2023/12/02 01:37:23;;;;;;;36.25;20.17;;;0.30;99.90;;;;;;5015328;28;20053;-62
2023/12/02 01:39:48;;;;;;;33.28;19.38;;;0.30;99.90;;;;;;5005959;28;20440;-62
2023/12/02 01:42:14;;;;;;;41.47;22.88;;;0.30;99.90;;;;;;5019632;28;20048;-61
2023/12/02 01:44:40;;;;;;;35.20;21.08;;;0.30;99.90;;;;;;5024865;28;20076;-62
2023/12/02 01:47:06;;;;;;;40.25;21.48;;;0.30;99.90;;;;;;5024560;28;20090;-61
2023/12/02 01:49:32;;;;;;;35.60;20.67;;;0.30;99.90;;;;;;5023460;28;20084;-62
2023/12/02 01:51:58;;;;;;;38.42;22.23;;;0.30;99.90;;;;;;5019582;28;20072;-62
2023/12/02 01:54:24;;;;;;;38.90;21.98;;;0.30;99.90;;;;;;5003469;28;20045;-62
2023/12/02 01:56:50;;;;;;;38.30;21.35;;;0.30;99.90;;;;;;5037894;28;20400;-62
2023/12/02 01:59:16;;;;;;;34.72;21.10;;;0.20;99.90;;;;;;5022785;28;20039;-61
2023/12/02 02:01:41;;;;;;;34.03;20.00;;;0.20;99.90;;;;;;5019352;28;20049;-62
2023/12/02 02:04:07;;;;;;;36.78;20.92;;;0.20;99.90;;;;;;5024349;28;20038;-62
2023/12/02 02:06:33;;;;;;;38.47;21.50;;;0.30;99.90;;;;;;5006527;28;20401;-62
2023/12/02 02:08:59;;;;;;;36.47;21.08;;;0.20;99.90;;;;;;5021982;28;20119;-62
2023/12/02 02:11:25;;;;;;;38.40;20.88;;;0.30;99.90;;;;;;5019588;28;20085;-62
2023/12/02 02:13:50;;;;;;;35.50;20.30;;;0.20;99.90;;;;;;5024984;28;20034;-62
2023/12/02 02:16:16;;;;;;;36.13;20.75;;;0.20;99.90;;;;;;5025512;28;20552;-62
2023/12/02 02:18:42;;;;;;;38.33;20.83;;;0.20;99.90;;;;;;5043043;28;20171;-62
2023/12/02 02:21:07;;;;;;;35.33;20.77;;;0.20;99.90;;;;;;5024981;28;20029;-62
2023/12/02 02:23:33;;;;;;;34.33;20.88;;;0.30;99.90;;;;;;5027169;28;20044;-62
2023/12/02 02:25:59;;;;;;;41.08;21.70;;;0.30;99.90;;;;;;5020401;28;20044;-62
2023/12/02 02:28:27;;;;;;;34.22;20.85;;;0.30;99.90;;;;;;5022666;28;20117;-62
2023/12/02 02:30:54;;;;;;;36.70;21.13;;;0.30;99.90;;;;;;5007852;28;20500;-62
2023/12/02 02:33:20;;;;;;;35.65;20.02;;;0.30;99.90;;;;;;5026593;28;20041;-62
2023/12/02 02:35:47;;;;;;;33.28;20.50;;;0.20;99.90;;;;;;5026342;28;20048;-61
2023/12/02 02:38:14;;;;;;;33.95;19.50;;;0.20;99.90;;;;;;5007297;28;20531;-61
2023/12/02 02:40:39;;;;;;;36.33;20.52;;;0.20;99.90;;;;;;5022867;28;20081;-62
2023/12/02 02:43:05;;;;;;;34.65;20.23;;;0.20;99.90;;;;;;5008098;28;20796;-62
2023/12/02 02:45:31;;;;;;;33.88;19.58;;;0.20;99.90;;;;;;5038910;28;20037;-62
2023/12/02 02:47:57;;;;;;;39.00;20.17;;;0.20;99.90;;;;;;5021290;28;20064;-62
2023/12/02 02:50:23;;;;;;;35.03;20.40;;;0.20;99.90;;;;;;5019420;28;20045;-61
2023/12/02 02:52:49;;;;;;;38.83;21.13;;;0.30;99.90;;;;;;5037763;28;20042;-62
2023/12/02 02:55:15;;;;;;;36.75;20.85;;;0.30;99.90;;;;;;5023111;28;20048;-62
2023/12/02 02:57:40;;;;;;;37.17;20.77;;;0.30;99.90;;;;;;5024907;28;20778;-62
2023/12/02 03:00:09;;;;;;;39.65;21.90;;;0.30;99.90;;;;;;5005088;28;20124;-62
2023/12/02 03:02:41;;;;;;;34.22;20.27;;;0.30;99.90;;;;;;5025921;28;20045;-62
2023/12/02 03:05:07;;;;;;;33.72;20.38;;;0.30;99.90;;;;;;5025472;28;20488;-62
2023/12/02 03:07:33;;;;;;;34.60;19.42;;;0.30;99.90;;;;;;5021024;28;20045;-62
2023/12/02 03:09:59;;;;;;;40.53;22.38;;;0.30;99.90;;;;;;5023553;28;20064;-62
2023/12/02 03:12:26;;;;;;;36.35;20.27;;;0.30;99.90;;;;;;5037259;28;20037;-62
2023/12/02 03:14:53;;;;;;;33.92;20.08;;;0.30;99.90;;;;;;5025255;28;20041;-61
2023/12/02 03:17:19;;;;;;;38.40;21.92;;;0.30;99.90;;;;;;5019113;28;20049;-61
2023/12/02 03:19:45;;;;;;;34.90;20.83;;;0.30;99.90;;;;;;5005863;28;20416;-62
2023/12/02 03:22:11;;;;;;;37.47;21.27;;;0.30;99.90;;;;;;5038664;28;20052;-62
2023/12/02 03:24:37;;;;;;;34.88;21.38;;;0.40;99.90;;;;;;5006768;28;20038;-62
2023/12/02 03:27:03;;;;;;;43.33;24.10;;;0.40;99.90;;;;;;5022322;28;20496;-62
2023/12/02 03:29:29;;;;;;;37.95;21.65;;;0.40;99.90;;;;;;5022103;28;20037;-61
2023/12/02 03:31:54;;;;;;;38.20;21.85;;;0.40;99.90;;;;;;5023140;28;20179;-61
2023/12/02 03:34:20;;;;;;;36.53;20.38;;;0.40;99.90;;;;;;5025730;28;20049;-61
2023/12/02 03:36:46;;;;;;;37.85;21.33;;;0.30;99.90;;;;;;5023819;28;20433;-62
2023/12/02 03:39:15;;;;;;;41.10;22.63;;;0.40;99.90;;;;;;5023406;28;20056;-63
2023/12/02 03:41:42;;;;;;;38.92;21.80;;;0.40;99.90;;;;;;5021089;28;20464;-62
2023/12/02 03:44:11;;;;;;;37.53;21.70;;;0.40;99.90;;;;;;5023826;28;20331;-62
2023/12/02 03:46:37;;;;;;;37.13;20.85;;;0.40;99.90;;;;;;5023325;28;20044;-62
2023/12/02 03:49:03;;;;;;;37.53;22.48;;;0.40;99.90;;;;;;5023027;28;20037;-62
2023/12/02 03:51:29;;;;;;;35.15;21.55;;;0.40;99.90;;;;;;5018831;28;20121;-62
2023/12/02 03:53:55;;;;;;;38.58;21.98;;;0.40;99.90;;;;;;5021106;28;20139;-62
2023/12/02 03:56:21;;;;;;;37.20;21.48;;;0.40;99.90;;;;;;5020161;28;20041;-63
2023/12/02 04:02:24;;;;;;;37.83;21.55;;;0.30;99.90;;;;;;5037279;28;20124;-61
2023/12/02 04:04:50;;;;;;;37.33;21.30;;;0.30;99.90;;;;;;5007612;28;20120;-61
2023/12/02 04:07:16;;;;;;;37.92;20.80;;;0.30;99.90;;;;;;5027044;28;20041;-63
2023/12/02 04:09:43;;;;;;;35.13;21.20;;;0.40;99.90;;;;;;5007987;28;20045;-63
2023/12/02 04:12:09;;;;;;;37.88;20.83;;;0.40;99.90;;;;;;5019888;28;20499;-62
2023/12/02 04:14:34;;;;;;;44.42;24.15;;;0.40;99.90;;;;;;5018663;28;20033;-62
2023/12/02 04:17:01;;;;;;;39.08;20.92;;;0.40;99.90;;;;;;5009292;28;20125;-62
2023/12/02 04:19:27;;;;;;;35.75;21.08;;;0.40;99.90;;;;;;5018561;28;20621;-62
2023/12/02 04:21:53;;;;;;;33.42;20.63;;;0.30;99.90;;;;;;5022345;28;20092;-62
2023/12/02 04:24:19;;;;;;;39.50;22.42;;;0.40;99.90;;;;;;5002523;28;20045;-61
2023/12/02 04:26:44;;;;;;;33.22;20.23;;;0.40;99.90;;;;;;5007895;28;20787;-62
2023/12/02 04:29:10;;;;;;;39.40;23.67;;;0.40;99.90;;;;;;5007248;28;20029;-62
2023/12/02 04:31:36;;;;;;;37.95;21.73;;;0.40;99.90;;;;;;5019947;28;20049;-60
2023/12/02 04:34:01;;;;;;;40.58;22.30;;;0.40;99.90;;;;;;5024317;28;20048;-60
2023/12/02 04:36:27;;;;;;;38.63;23.15;;;0.40;99.90;;;;;;5000113;28;20041;-59
2023/12/02 04:38:53;;;;;;;36.67;21.13;;;0.40;99.90;;;;;;5021443;28;20396;-60
2023/12/02 04:41:19;;;;;;;38.78;22.40;;;0.40;99.90;;;;;;5002786;28;20036;-60
2023/12/02 04:43:44;;;;;;;39.53;23.05;;;0.40;99.90;;;;;;5006655;28;20403;-60
2023/12/02 04:46:10;;;;;;;36.30;22.30;;;0.40;99.90;;;;;;5023834;28;20041;-60
2023/12/02 04:48:37;;;;;;;40.72;23.23;;;0.40;99.90;;;;;;5007196;28;20066;-60
2023/12/02 04:51:03;;;;;;;32.95;19.77;;;0.30;99.90;;;;;;5020518;28;20045;-60
2023/12/02 04:53:28;;;;;;;36.72;22.23;;;0.40;99.90;;;;;;5007262;28;20201;-60
2023/12/02 04:55:54;;;;;;;42.65;23.80;;;0.40;99.90;;;;;;5016179;28;20041;-60
2023/12/02 04:58:22;;;;;;;42.60;23.33;;;0.40;99.90;;;;;;5004471;28;20053;-60
2023/12/02 05:00:48;;;;;;;40.88;21.63;;;0.40;99.90;;;;;;5021106;28;20501;-61
2023/12/02 05:03:17;;;;;;;40.85;22.35;;;0.30;99.90;;;;;;5007556;28;20096;-57
2023/12/02 05:05:43;;;;;;;35.13;20.38;;;0.40;99.90;;;;;;4999743;28;20042;-60
2023/12/02 05:08:09;;;;;;;39.60;21.83;;;0.40;99.90;;;;;;5023698;28;20262;-60
2023/12/02 05:10:35;;;;;;;40.83;21.95;;;0.40;99.90;;;;;;5003775;28;20034;-61
2023/12/02 05:13:01;;;;;;;36.97;21.13;;;0.30;99.90;;;;;;5021181;28;20037;-61
2023/12/02 05:15:28;;;;;;;37.17;21.58;;;0.40;99.90;;;;;;5003089;28;20042;-60
2023/12/02 05:17:54;;;;;;;37.90;22.23;;;0.40;99.90;;;;;;5016723;28;20060;-60
2023/12/02 05:20:20;;;;;;;31.02;19.40;;;0.40;99.90;;;;;;5006258;28;20408;-59
2023/12/02 05:22:46;;;;;;;30.85;18.58;;;0.30;99.90;;;;;;5021296;28;20041;-60
2023/12/02 05:25:12;;;;;;;38.63;20.92;;;0.30;99.90;;;;;;5019125;28;20037;-58
2023/12/02 05:27:37;;;;;;;40.17;21.88;;;0.40;99.90;;;;;;5023071;28;20049;-60
2023/12/02 05:30:04;;;;;;;35.95;21.73;;;0.40;99.90;;;;;;5003829;28;20424;-59
2023/12/02 05:32:30;;;;;;;37.10;22.17;;;0.40;99.90;;;;;;4998905;28;20099;-60
2023/12/02 05:34:55;;;;;;;34.53;20.85;;;0.40;99.90;;;;;;5019607;28;20037;-60
2023/12/02 05:37:21;;;;;;;39.28;21.38;;;0.40;99.90;;;;;;5026085;28;20045;-60
2023/12/02 05:39:47;;;;;;;39.67;22.23;;;0.40;99.90;;;;;;5017990;28;20488;-60
2023/12/02 05:42:12;;;;;;;38.92;21.83;;;0.40;99.90;;;;;;5005460;28;20131;-60
2023/12/02 05:44:40;;;;;;;36.95;22.17;;;0.40;99.90;;;;;;5015687;28;20041;-60
2023/12/02 05:47:06;;;;;;;42.53;24.50;;;0.40;99.90;;;;;;5020866;28;20457;-60
2023/12/02 05:49:32;;;;;;;36.22;21.38;;;0.40;99.90;;;;;;5020377;28;20037;-60
2023/12/02 05:51:58;;;;;;;35.08;21.17;;;0.40;99.90;;;;;;5001043;28;20068;-60
2023/12/02 05:54:24;;;;;;;36.40;20.67;;;0.50;99.90;;;;;;5021108;28;20483;-60
2023/12/02 05:56:52;;;;;;;33.45;19.80;;;0.50;99.90;;;;;;5018408;28;20034;-60
2023/12/02 05:59:19;;;;;;;33.42;19.95;;;0.50;99.90;;;;;;5021058;28;20532;-60
2023/12/02 06:01:45;;;;;;;36.67;20.77;;;0.50;99.90;;;;;;5001753;28;20120;-61
2023/12/02 06:04:11;;;;;;;35.67;20.73;;;0.50;99.90;;;;;;5031356;28;20067;-59
2023/12/02 06:06:37;;;;;;;36.08;21.00;;;0.50;99.90;;;;;;5002034;28;20690;-60
2023/12/02 06:09:03;;;;;;;42.20;22.90;;;0.50;99.90;;;;;;5019599;28;20046;-60
2023/12/02 06:11:29;;;;;;;42.00;22.98;;;0.50;99.90;;;;;;5019929;28;20056;-59
2023/12/02 06:13:54;;;;;;;38.53;21.95;;;0.60;99.90;;;;;;5020952;28;20029;-61
2023/12/02 06:20:01;;;;;;;37.80;21.52;;;0.60;99.90;;;;;;5024872;28;20045;-61
2023/12/02 06:22:27;;;;;;;37.58;21.85;;;0.60;99.90;;;;;;5018995;28;20029;-61
2023/12/02 06:24:53;;;;;;;39.50;21.13;;;0.60;99.90;;;;;;5005278;28;20033;-60
2023/12/02 06:27:19;;;;;;;37.65;22.45;;;0.60;99.90;;;;;;5016030;28;20146;-60
2023/12/02 06:29:44;;;;;;;37.70;20.77;;;0.60;99.90;;;;;;5021381;28;20049;-60
2023/12/02 06:32:10;;;;;;;37.67;20.77;;;0.60;99.90;;;;;;5013966;28;20030;-60
2023/12/02 06:34:36;;;;;;;38.60;21.27;;;0.60;99.90;;;;;;5018957;28;20167;-60
2023/12/02 06:37:02;;;;;;;42.47;22.73;;;0.60;99.90;;;;;;5004253;28;20056;-60
2023/12/02 06:39:30;;;;;;;32.80;18.90;;;0.60;99.90;;;;;;5038774;28;20052;-60
2023/12/02 06:41:56;;;;;;;42.50;22.23;;;0.70;99.90;;;;;;5032627;28;20416;-61
2023/12/02 06:44:22;;;;;;;41.83;23.13;;;0.60;99.90;;;;;;4985903;28;20052;-59
2023/12/02 06:46:47;;;;;;;44.47;23.50;;;0.60;99.90;;;;;;5031595;28;20128;-60
2023/12/02 06:49:13;;;;;;;45.15;22.30;;;0.60;99.90;;;;;;5020501;28;20113;-60
2023/12/02 06:51:39;;;;;;;34.83;19.38;;;0.70;99.90;;;;;;5003456;28;20040;-60
2023/12/02 06:54:05;;;;;;;37.42;21.33;;;0.60;99.90;;;;;;5018425;28;20298;-60
2023/12/02 06:56:31;;;;;;;45.10;23.88;;;0.60;99.90;;;;;;5022628;28;20034;-60
2023/12/02 06:58:57;;;;;;;40.17;21.17;;;0.70;99.90;;;;;;5021992;28;20047;-61
2023/12/02 07:01:26;;;;;;;37.60;21.80;;;0.60;99.90;;;;;;5023168;28;20602;-59
2023/12/02 07:03:56;;;;;;;40.50;23.00;;;0.60;99.90;;;;;;5026471;28;20536;-60
2023/12/02 07:06:22;;;;;;;37.88;21.80;;;0.70;99.90;;;;;;5021185;28;20046;-61
2023/12/02 07:08:49;;;;;;;37.92;21.30;;;0.60;99.90;;;;;;5026241;28;20120;-60
2023/12/02 07:11:15;;;;;;;35.22;20.30;;;0.70;99.90;;;;;;5021547;28;20041;-60
2023/12/02 07:13:41;;;;;;;41.80;23.30;;;0.70;99.90;;;;;;5024523;28;20294;-59
2023/12/02 07:16:07;;;;;;;40.22;22.17;;;0.70;99.90;;;;;;5036150;28;20056;-60
2023/12/02 07:18:33;;;;;;;42.45;23.13;;;0.70;99.90;;;;;;5004214;28;20132;-60
2023/12/02 07:20:59;;;;;;;32.58;18.45;;;0.70;99.90;;;;;;5029756;28;20087;-60
2023/12/02 07:23:25;;;;;;;39.05;21.65;;;0.70;99.90;;;;;;5015233;28;20049;-60
2023/12/02 07:25:55;;;;;;;36.92;21.45;;;0.70;99.90;;;;;;5026183;28;20792;-60
2023/12/02 07:28:21;;;;;;;40.38;23.20;;;0.80;99.90;;;;;;5023606;28;20335;-59
2023/12/02 07:30:49;;;;;;;39.00;22.48;;;0.80;99.90;;;;;;5023618;28;20041;-61
2023/12/02 07:33:18;;;;;;;37.08;21.77;;;0.80;99.90;;;;;;4998755;28;20382;-61
2023/12/02 07:35:44;;;;;;;41.15;22.75;;;0.80;99.90;;;;;;5039206;28;20045;-60
2023/12/02 07:38:10;;;;;;;34.72;21.00;;;0.80;99.90;;;;;;5026557;28;20048;-60
2023/12/02 07:40:35;;;;;;;38.88;21.42;;;0.80;99.90;;;;;;5025872;28;20106;-59
2023/12/02 07:43:02;;;;;;;34.15;19.65;;;0.80;99.90;;;;;;4989304;28;20037;-60
2023/12/02 07:45:31;;;;;;;35.33;21.20;;;0.90;99.90;;;;;;5020585;28;20029;-59
2023/12/02 07:47:57;;;;;;;41.97;23.58;;;0.80;99.90;;;;;;5039824;28;20503;-59
2023/12/02 07:50:23;;;;;;;37.55;22.00;;;0.90;99.90;;;;;;5020073;28;20522;-60
2023/12/02 07:52:49;;;;;;;36.08;20.42;;;0.90;99.90;;;;;;5025784;28;20037;-59
2023/12/02 07:55:15;;;;;;;37.20;20.27;;;0.90;99.90;;;;;;5023583;28;20040;-59
2023/12/02 07:57:41;;;;;;;39.40;21.40;;;0.90;99.90;;;;;;5000376;28;20341;-58
2023/12/02 08:00:07;;;;;;;36.60;20.55;;;0.90;99.90;;;;;;5025899;28;20041;-58
2023/12/02 08:02:34;;;;;;;35.25;20.05;;;0.90;99.90;;;;;;5025305;28;20036;-61
2023/12/02 08:05:03;;;;;;;38.15;21.33;;;0.90;99.90;;;;;;5026830;28;20388;-60
2023/12/02 08:07:28;;;;;;;40.58;21.13;;;0.90;99.90;;;;;;5017294;28;20046;-60
2023/12/02 08:09:54;;;;;;;35.97;20.17;;;0.90;99.90;;;;;;5030140;28;20053;-60
2023/12/02 08:12:20;;;;;;;39.72;21.08;;;1.00;99.90;;;;;;5010906;28;20117;-60
2023/12/02 08:14:45;;;;;;;34.13;18.80;;;1.00;99.90;;;;;;5029979;28;20045;-60
2023/12/02 08:17:11;;;;;;;36.22;20.10;;;1.00;99.90;;;;;;5031609;28;20264;-59
2023/12/02 08:19:37;;;;;;;37.25;20.52;;;1.00;99.90;;;;;;5028846;28;20382;-59
2023/12/02 08:22:03;;;;;;;36.63;19.52;;;1.10;99.90;;;;;;5016341;28;20056;-60
2023/12/02 08:24:32;;;;;;;38.83;20.95;;;1.00;99.90;;;;;;5037652;28;20041;-59
2023/12/02 08:26:58;;;;;;;34.90;18.48;;;1.10;99.90;;;;;;5024068;28;20045;-59
2023/12/02 08:29:24;;;;;;;32.75;19.50;;;1.10;99.90;;;;;;5025368;28;20081;-60
2023/12/02 08:31:50;;;;;;;39.80;21.40;;;1.10;99.90;;;;;;5024599;28;20053;-59
2023/12/02 08:34:16;;;;;;;35.22;20.05;;;1.10;99.90;;;;;;4996771;28;20068;-59
2023/12/02 08:36:42;;;;;;;34.30;19.73;;;1.20;99.90;;;;;;5019217;28;20096;-60
2023/12/02 08:39:09;;;;;;;37.60;21.35;;;1.20;99.90;;;;;;5021463;28;20075;-59
2023/12/02 08:41:36;;;;;;;32.65;19.73;;;1.20;99.90;;;;;;5012630;28;20041;-59
2023/12/02 08:44:02;;;;;;;36.35;20.67;;;1.20;99.90;;;;;;5010197;28;20103;-59
2023/12/02 08:46:28;;;;;;;35.33;20.05;;;1.20;99.90;;;;;;5019976;28;20053;-59
2023/12/02 08:48:54;;;;;;;31.08;17.15;;;1.20;99.90;;;;;;5011812;28;20068;-59
2023/12/02 08:51:19;;;;;;;33.13;19.05;;;1.30;99.90;;;;;;5008333;28;20400;-59
2023/12/02 08:53:47;;;;;;;32.88;18.10;;;1.20;99.90;;;;;;5018683;28;20067;-59
2023/12/02 08:56:13;;;;;;;32.70;18.08;;;1.30;99.90;;;;;;5007870;28;20443;-59
2023/12/02 08:58:39;;;;;;;34.33;20.25;;;1.30;99.90;;;;;;5019745;28;20037;-59
2023/12/02 09:01:05;;;;;;;30.70;18.08;;;1.30;99.90;;;;;;4988570;28;20056;-58
2023/12/02 09:03:30;;;;;;;30.33;18.70;;;1.30;99.90;;;;;;5018086;28;20041;-58
2023/12/02 09:05:56;;;;;;;34.85;19.55;;;1.40;99.90;;;;;;5027481;28;20117;-58
2023/12/02 09:08:23;;;;;;;38.05;23.50;;;1.40;99.90;;;;;;5034527;28;20054;-58
2023/12/02 09:10:49;;;;;;;30.00;17.73;;;1.50;99.90;;;;;;5010834;28;20037;-59
2023/12/02 09:13:36;;;;;;;33.83;19.15;;;1.50;99.90;;;;;;5021903;28;20041;-58
2023/12/02 09:16:02;;;;;;;32.67;17.98;;;1.50;99.90;;;;;;5018083;28;20041;-58
2023/12/02 09:18:36;;;;;;;40.60;19.73;;;1.60;99.90;;;;;;5006188;28;20048;-59
2023/12/02 09:21:02;;;;;;;;;;;1.60;99.90;;;;;;5025346;28;20045;-59
2023/12/02 09:23:28;;;;;;;30.80;17.15;;;1.60;99.90;;;;;;5002192;28;19959;-60
2023/12/02 09:25:59;;;;;;;29.45;15.88;;;1.60;99.90;;;;;;5023139;28;20412;-59
2023/12/02 09:28:29;;;;;;;26.02;14.68;;;1.60;99.90;;;;;;5022012;28;20080;-59
2023/12/02 09:31:05;;;;;;;28.75;16.10;;;1.70;99.90;;;;;;5024375;28;20399;-58
2023/12/02 09:33:32;;;;;;;28.48;15.65;;;1.70;99.90;;;;;;5019257;28;20053;-59
2023/12/02 09:36:01;;;;;;;26.95;15.18;;;1.80;99.90;;;;;;5007121;28;20045;-59
2023/12/02 09:38:31;;;;;;;27.33;15.43;;;1.80;99.90;;;;;;5026462;28;20500;-59
2023/12/02 09:41:14;;;;;;;28.65;16.55;;;1.90;99.90;;;;;;5018476;28;20041;-59
2023/12/02 09:44:04;;;;;;;31.40;19.02;;;1.90;99.90;;;;;;5019982;28;20037;-58
2023/12/02 09:46:37;;;;;;;29.15;15.90;;;2.00;99.90;;;;;;5015060;28;20382;-60
2023/12/02 09:49:18;;;;;;;27.65;14.65;;;2.10;99.90;;;;;;5023317;28;20049;-59
2023/12/02 09:52:14;;;;;;;25.35;14.55;;;2.20;99.90;;;;;;5014618;28;20531;-59
2023/12/02 09:54:43;;;;;;;25.55;14.70;;;2.20;99.90;;;;;;5018598;28;20120;-59
2023/12/02 09:57:14;;;;;;;24.55;13.98;;;2.30;99.90;;;;;;5022545;28;20044;-59
2023/12/02 10:00:02;;;;;;;32.50;16.95;;;2.40;99.90;;;;;;5024356;28;20049;-60
2023/12/02 10:02:50;;;;;;;22.05;12.98;;;2.40;99.90;;;;;;5019747;28;20423;-59
2023/12/02 10:05:16;;;;;;;18.48;11.15;;;2.30;99.90;;;;;;5003453;28;20328;-59
2023/12/02 10:08:03;;;;;;;16.95;10.73;;;2.40;99.90;;;;;;5017791;28;20101;-59
2023/12/02 10:10:52;;;;;;;18.45;10.75;;;2.40;99.90;;;;;;5015913;28;20467;-59
2023/12/02 10:13:31;;;;;;;20.30;11.32;;;2.40;99.90;;;;;;5019438;28;20034;-59
2023/12/02 10:16:05;;;;;;;18.20;11.68;;;2.50;99.90;;;;;;5023555;28;20045;-59
2023/12/02 10:18:37;;;;;;;20.50;11.90;;;2.50;99.90;;;;;;5025836;28;20052;-59
2023/12/02 10:21:08;;;;;;;23.55;13.90;;;2.50;99.90;;;;;;5010914;28;20132;-59
2023/12/02 10:23:49;;;;;;;20.75;12.65;;;2.50;99.90;;;;;;5031695;28;20132;-59
2023/12/02 10:26:38;;;;;;;20.88;11.77;;;2.60;99.90;;;;;;5017978;28;20067;-59
2023/12/02 10:29:16;;;;;;;16.08;10.20;;;2.60;99.90;;;;;;5005027;28;20045;-59
2023/12/02 10:31:58;;;;;;;16.13;8.85;;;2.70;99.90;;;;;;5021105;28;20443;-59
2023/12/02 10:34:48;;;;;;;14.48;9.73;;;2.70;99.90;;;;;;5016102;28;20041;-59
2023/12/02 10:37:14;;;;;;;14.02;8.57;;;2.80;99.90;;;;;;5022021;28;20111;-59
2023/12/02 10:39:47;;;;;;;17.42;9.57;;;2.80;99.90;;;;;;5030289;28;20455;-59
2023/12/02 10:42:20;;;;;;;18.65;10.68;;;2.90;99.90;;;;;;5033528;28;20420;-59
2023/12/02 10:44:48;;;;;;;12.63;7.70;;;2.90;99.90;;;;;;5034435;28;20053;-58
2023/12/02 10:47:16;;;;;;;17.13;9.73;;;2.90;99.90;;;;;;5024480;28;20037;-59
2023/12/02 10:49:43;;;;;;;13.95;8.32;;;3.00;99.90;;;;;;5025180;28;20045;-59
2023/12/02 10:52:12;;;;;;;18.20;10.57;;;3.00;99.90;;;;;;5017936;28;20037;-60
2023/12/02 10:54:43;;;;;;;20.85;12.93;;;3.00;99.90;;;;;;5025099;28;20045;-59
2023/12/02 10:57:10;;;;;;;20.95;11.38;;;3.10;99.90;;;;;;5027124;28;20050;-60
2023/12/02 11:00:11;;;;;;;33.67;20.98;;;3.10;99.90;;;;;;5030683;28;20119;-59
2023/12/02 11:02:36;;;;;;;11.45;7.97;;;3.20;99.90;;;;;;5007056;28;20064;-59
2023/12/02 11:05:28;;;;;;;19.80;9.95;;;3.20;99.90;;;;;;5018074;28;20049;-59
2023/12/02 11:07:59;;;;;;;14.80;9.18;;;3.20;99.90;;;;;;5021764;28;20469;-59
2023/12/02 11:10:46;;;;;;;9.98;6.25;;;3.20;99.90;;;;;;5019877;28;20037;-59
2023/12/02 11:13:18;;;;;;;12.68;7.38;;;3.30;99.90;;;;;;5039120;28;20376;-59
2023/12/02 11:19:34;;;;;;;54.58;25.85;;;3.30;99.90;;;;;;5025716;28;20447;-59
2023/12/02 11:22:34;;;;;;;26.42;13.52;;;3.20;99.90;;;;;;5020315;28;20064;-60
2023/12/02 11:25:27;;;;;;;33.35;17.30;;;3.30;99.90;;;;;;5019154;28;20155;-60
2023/12/02 11:27:59;;;;;;;18.30;9.88;;;3.30;99.90;;;;;;5029792;28;20041;-58
2023/12/02 11:30:49;;;;;;;11.68;7.05;;;3.20;99.90;;;;;;5006510;28;20033;-59
2023/12/02 11:33:41;;;;;;;8.77;5.93;;;3.20;99.90;;;;;;5024321;28;20041;-58
2023/12/02 11:36:33;;;;;;;8.88;5.90;;;3.30;99.90;;;;;;5020765;28;20049;-59
2023/12/02 11:39:14;;;;;;;12.27;8.48;;;3.40;99.90;;;;;;5027406;28;20077;-59
2023/12/02 11:41:55;;;;;;;14.55;8.38;;;3.40;99.90;;;;;;5010717;28;20040;-58
2023/12/02 11:44:29;;;;;;;23.80;12.02;;;3.40;99.90;;;;;;5025529;28;20400;-60
2023/12/02 11:47:23;;;;;;;10.32;5.25;;;3.40;99.90;;;;;;5025020;28;20132;-60
2023/12/02 11:50:33;;;;;;;18.35;9.35;;;3.50;99.90;;;;;;5024813;28;20065;-60
2023/12/02 11:53:08;;;;;;;21.17;10.05;;;3.50;99.90;;;;;;5014707;28;20079;-60
2023/12/02 11:55:48;;;;;;;17.30;9.15;;;3.50;99.90;;;;;;5022221;28;20049;-60
2023/12/02 11:58:41;;;;;;;20.23;9.90;;;3.50;99.90;;;;;;5022561;28;20049;-59
2023/12/02 12:01:25;;;;;;;38.92;16.02;;;3.50;99.90;;;;;;5024807;28;20045;-59
2023/12/02 12:04:17;;;;;;;29.05;10.85;;;3.40;99.90;;;;;;5025734;28;20038;-59
2023/12/02 12:07:14;;;;;;;19.83;7.93;;;3.40;99.90;;;;;;4993227;28;20103;-59
2023/12/02 12:09:55;;;;;;;22.08;9.15;;;3.50;99.90;;;;;;5035940;28;20049;-59
2023/12/02 12:12:23;;;;;;;32.58;10.60;;;3.50;99.90;;;;;;5031658;28;20081;-59
2023/12/02 12:14:50;;;;;;;42.70;13.18;;;3.50;99.90;;;;;;5003837;28;20049;-60
2023/12/02 12:17:16;;;;;;;29.52;9.80;;;3.50;99.90;;;;;;5024676;28;20691;-60
2023/12/02 12:19:41;;;;;;;48.92;15.98;;;3.50;99.90;;;;;;5018308;28;20033;-60
2023/12/02 12:22:07;;;;;;;34.80;16.00;;;3.50;99.90;;;;;;5002601;28;20046;-59
2023/12/02 12:24:34;;;;;;;16.42;11.27;;;3.50;99.90;;;;;;5024013;28;20389;-59
2023/12/02 12:27:00;;;;;;;8.40;5.20;;;3.50;99.90;;;;;;5008263;28;20124;-60
2023/12/02 12:32:57;;;;;;;6.80;4.10;;;3.60;99.90;;;;;;5019188;28;20052;-60
2023/12/02 12:35:23;;;;;;;7.10;4.18;;;3.60;99.90;;;;;;5023517;28;20049;-60
2023/12/02 12:37:48;;;;;;;10.98;6.40;;;3.70;99.90;;;;;;5018368;28;20044;-60
2023/12/02 12:40:14;;;;;;;8.00;4.75;;;3.70;99.90;;;;;;5007161;28;20041;-60
2023/12/02 12:42:48;;;;;;;10.70;6.30;;;3.70;99.90;;;;;;4991869;28;20096;-59
2023/12/02 12:45:14;;;;;;;9.55;5.70;;;3.70;99.90;;;;;;5020274;28;20044;-60
2023/12/02 12:47:42;;;;;;;8.25;5.05;;;3.70;99.90;;;;;;5023694;28;20033;-60
2023/12/02 12:50:14;;;;;;;7.13;4.70;;;3.70;99.90;;;;;;5021740;28;20037;-60
2023/12/02 12:52:46;;;;;;;7.88;4.55;;;3.70;99.90;;;;;;5019450;28;20045;-59
2023/12/02 12:55:22;;;;;;;7.03;4.63;;;3.80;99.90;;;;;;5018642;28;20072;-60
2023/12/02 12:57:58;;;;;;;7.25;5.00;;;3.70;99.90;;;;;;5016396;28;20048;-60
2023/12/02 13:00:30;;;;;;;12.38;8.30;;;3.70;99.90;;;;;;5021374;28;20045;-60
2023/12/02 13:03:18;;;;;;;12.65;7.80;;;3.70;99.90;;;;;;5023732;28;20748;-60
2023/12/02 13:05:54;;;;;;;9.30;5.90;;;3.80;99.90;;;;;;5015874;28;20176;-60